createdAt,value
2023-04-18T00:00:12.586Z,8.69
2023-04-18T00:02:45.703Z,8.69
2023-04-18T00:05:18.525Z,8.69
2023-04-18T00:07:51.533Z,8.69
2023-04-18T00:10:23.104Z,8.69
2023-04-18T00:12:54.744Z,8.69
2023-04-18T00:15:26.395Z,8.60
2023-04-18T00:17:58.032Z,8.51
2023-04-18T00:20:29.770Z,8.56
2023-04-18T00:23:01.881Z,8.56
2023-04-18T00:25:33.747Z,8.56
2023-04-18T00:28:05.372Z,8.58
2023-04-18T00:30:36.912Z,8.59
2023-04-18T00:33:08.994Z,8.59
2023-04-18T00:35:40.575Z,8.58
2023-04-18T00:38:12.118Z,8.59
2023-04-18T00:40:43.664Z,8.49
2023-04-18T00:43:15.386Z,8.51
2023-04-18T00:45:46.905Z,8.51
2023-04-18T00:48:18.734Z,8.51
2023-04-18T00:50:50.455Z,8.52
2023-04-18T00:53:22.627Z,8.52
2023-04-18T00:55:54.837Z,8.56
2023-04-18T00:58:26.747Z,8.55
2023-04-18T01:00:58.345Z,8.56
2023-04-18T01:03:30.124Z,8.54
2023-04-18T01:06:02.096Z,8.53
2023-04-18T01:08:33.887Z,8.52
2023-04-18T01:11:05.625Z,8.55
2023-04-18T01:13:37.189Z,8.42
2023-04-18T01:16:08.761Z,8.48
2023-04-18T01:18:40.270Z,8.45
2023-04-18T01:21:12.523Z,8.40
2023-04-18T01:23:44.380Z,8.38
2023-04-18T01:26:16.068Z,8.35
2023-04-18T01:28:47.609Z,8.37
2023-04-18T01:31:19.125Z,8.39
2023-04-18T01:33:50.809Z,8.43
2023-04-18T01:36:22.344Z,8.40
2023-04-18T01:38:53.921Z,8.39
2023-04-18T01:41:25.475Z,8.39
2023-04-18T01:43:57.009Z,8.38
2023-04-18T01:46:28.883Z,8.32
2023-04-18T01:49:00.775Z,8.36
2023-04-18T01:51:32.253Z,8.38
2023-04-18T01:54:03.871Z,8.37
2023-04-18T01:56:35.431Z,8.37
2023-04-18T01:59:06.979Z,8.36
2023-04-18T02:01:38.561Z,8.34
2023-04-18T02:04:10.213Z,8.35
2023-04-18T02:06:41.740Z,8.34
2023-04-18T02:09:13.430Z,8.29
2023-04-18T02:11:44.954Z,8.30
2023-04-18T02:14:16.531Z,8.19
2023-04-18T02:16:48.152Z,8.22
2023-04-18T02:19:19.868Z,8.23
2023-04-18T02:21:51.927Z,8.21
2023-04-18T02:24:23.599Z,8.24
2023-04-18T02:26:55.235Z,8.22
2023-04-18T02:29:27.879Z,8.21
2023-04-18T02:32:00.042Z,8.20
2023-04-18T02:34:33.674Z,8.21
2023-04-18T02:37:05.319Z,8.21
2023-04-18T02:39:36.926Z,8.22
2023-04-18T02:42:08.416Z,8.20
2023-04-18T02:44:39.906Z,8.21
2023-04-18T02:47:11.377Z,8.20
2023-04-18T02:49:42.882Z,8.22
2023-04-18T02:52:14.791Z,8.21
2023-04-18T02:54:46.354Z,8.22
2023-04-18T02:57:17.962Z,8.17
2023-04-18T02:59:49.461Z,8.14
2023-04-18T03:02:21.119Z,8.14
2023-04-18T03:04:53.226Z,8.14
2023-04-18T03:07:24.758Z,8.12
2023-04-18T03:09:56.397Z,8.09
2023-04-18T03:12:27.866Z,8.04
2023-04-18T03:14:59.401Z,8.03
2023-04-18T03:17:31.048Z,8.04
2023-04-18T03:20:02.667Z,8.00
2023-04-18T03:22:34.201Z,8.00
2023-04-18T03:25:06.987Z,7.99
2023-04-18T03:27:38.536Z,8.01
2023-04-18T03:30:10.740Z,7.97
2023-04-18T03:32:42.467Z,7.98
2023-04-18T03:35:14.070Z,7.98
2023-04-18T03:37:45.553Z,8.01
2023-04-18T03:40:17.136Z,8.01
2023-04-18T03:42:48.639Z,7.95
2023-04-18T03:45:20.141Z,7.98
2023-04-18T03:47:51.634Z,8.01
2023-04-18T03:50:24.339Z,8.02
2023-04-18T03:52:55.933Z,8.02
2023-04-18T03:55:28.553Z,8.01
2023-04-18T03:58:00.086Z,7.99
2023-04-18T04:00:31.729Z,7.99
2023-04-18T04:03:03.379Z,7.98
2023-04-18T04:05:35.829Z,7.95
2023-04-18T04:08:07.585Z,7.96
2023-04-18T04:10:39.198Z,7.95
2023-04-18T04:13:10.777Z,7.92
2023-04-18T04:15:42.300Z,7.91
2023-04-18T04:18:13.743Z,7.88
2023-04-18T04:20:48.252Z,7.87
2023-04-18T04:23:19.732Z,7.88
2023-04-18T04:25:53.019Z,7.85
2023-04-18T04:28:28.710Z,7.87
2023-04-18T04:31:00.476Z,7.88
2023-04-18T04:33:33.280Z,7.89
2023-04-18T04:36:06.836Z,7.85
2023-04-18T04:38:40.504Z,7.83
2023-04-18T04:41:12.716Z,7.85
2023-04-18T04:43:44.246Z,7.86
2023-04-18T04:46:15.992Z,7.85
2023-04-18T04:48:47.543Z,7.89
2023-04-18T04:51:19.082Z,7.88
2023-04-18T04:53:50.693Z,7.85
2023-04-18T04:56:23.015Z,7.79
2023-04-18T04:58:56.182Z,7.81
2023-04-18T05:01:27.777Z,7.79
2023-04-18T05:03:59.574Z,7.79
2023-04-18T05:06:31.369Z,7.82
2023-04-18T05:09:02.853Z,7.77
2023-04-18T05:11:34.389Z,7.80
2023-04-18T05:14:05.949Z,7.84
2023-04-18T05:16:37.704Z,7.85
2023-04-18T05:19:09.269Z,7.83
2023-04-18T05:21:41.039Z,7.79
2023-04-18T05:24:12.792Z,7.79
2023-04-18T05:26:44.653Z,7.82
2023-04-18T05:29:16.219Z,7.86
2023-04-18T05:31:47.777Z,7.89
2023-04-18T05:34:19.293Z,7.94
2023-04-18T05:36:51.077Z,7.99
2023-04-18T05:39:22.915Z,8.01
2023-04-18T05:41:54.437Z,8.08
2023-04-18T05:44:25.893Z,8.07
2023-04-18T05:46:57.399Z,8.17
2023-04-18T05:49:29.179Z,8.22
2023-04-18T05:52:00.807Z,8.30
2023-04-18T05:54:32.322Z,8.33
2023-04-18T05:57:04.777Z,8.39
2023-04-18T05:59:36.560Z,8.45
2023-04-18T06:02:13.185Z,8.47
2023-04-18T06:04:45.370Z,8.53
2023-04-18T06:07:17.269Z,8.55
2023-04-18T06:09:49.779Z,8.60
2023-04-18T06:12:21.395Z,8.69
2023-04-18T06:14:52.891Z,8.74
2023-04-18T06:17:24.540Z,8.79
2023-04-18T06:19:56.107Z,8.90
2023-04-18T06:22:27.646Z,8.98
2023-04-18T06:24:59.219Z,9.09
2023-04-18T06:27:31.810Z,9.24
2023-04-18T06:30:05.400Z,9.30
2023-04-18T06:32:37.091Z,9.33
2023-04-18T06:35:08.841Z,9.32
2023-04-18T06:37:44.079Z,9.41
2023-04-18T06:40:15.549Z,9.47
2023-04-18T06:42:47.024Z,9.53
2023-04-18T06:45:18.675Z,9.64
2023-04-18T06:47:51.369Z,9.72
2023-04-18T06:50:22.984Z,9.74
2023-04-18T06:52:54.641Z,9.75
2023-04-18T06:55:26.442Z,9.78
2023-04-18T06:58:00.429Z,9.76
2023-04-18T07:00:31.903Z,9.73
2023-04-18T07:03:11.122Z,9.82
2023-04-18T07:05:43.095Z,9.61
2023-04-18T07:08:14.548Z,9.78
2023-04-18T07:10:46.215Z,9.97
2023-04-18T07:13:17.922Z,9.96
2023-04-18T07:15:49.507Z,10.18
2023-04-18T07:18:34.266Z,9.91
2023-04-18T07:21:09.299Z,10.37
2023-04-18T07:23:40.848Z,10.57
2023-04-18T07:26:13.604Z,10.67
2023-04-18T07:28:45.222Z,10.68
2023-04-18T07:31:16.899Z,10.62
2023-04-18T07:33:48.489Z,10.63
2023-04-18T07:36:20.104Z,10.63
2023-04-18T07:38:51.838Z,10.70
2023-04-18T07:41:23.363Z,10.76
2023-04-18T07:43:56.119Z,10.96
2023-04-18T07:46:27.876Z,11.05
2023-04-18T07:48:59.852Z,11.12
2023-04-18T07:51:31.834Z,11.20
2023-04-18T07:54:03.510Z,11.32
2023-04-18T07:56:35.110Z,11.36
2023-04-18T07:59:06.660Z,11.37
2023-04-18T08:01:38.207Z,11.44
2023-04-18T08:04:09.832Z,11.49
2023-04-18T08:06:41.474Z,11.52
2023-04-18T08:09:13.239Z,11.74
2023-04-18T08:11:45.128Z,11.87
2023-04-18T08:14:16.817Z,11.82
2023-04-18T08:16:48.619Z,11.89
2023-04-18T08:19:20.377Z,11.85
2023-04-18T08:21:52.119Z,11.77
2023-04-18T08:24:23.756Z,11.92
2023-04-18T08:26:56.770Z,11.81
2023-04-18T08:29:28.385Z,11.88
2023-04-18T08:32:00.309Z,11.88
2023-04-18T08:34:33.842Z,11.83
2023-04-18T08:37:07.209Z,11.86
2023-04-18T08:39:38.825Z,11.87
2023-04-18T08:42:10.574Z,11.81
2023-04-18T08:44:42.770Z,11.71
2023-04-18T08:47:14.639Z,11.41
2023-04-18T08:49:47.073Z,11.31
2023-04-18T08:52:19.109Z,11.20
2023-04-18T08:54:51.142Z,11.25
2023-04-18T08:57:30.908Z,11.27
2023-04-18T09:00:08.144Z,11.33
2023-04-18T09:02:44.987Z,11.29
2023-04-18T09:05:19.590Z,11.01
2023-04-18T09:07:53.557Z,11.02
2023-04-18T09:10:25.230Z,10.91
2023-04-18T09:12:58.087Z,10.81
2023-04-18T09:15:30.272Z,10.88
2023-04-18T09:18:05.703Z,10.90
2023-04-18T09:20:42.237Z,10.90
2023-04-18T09:23:23.352Z,10.84
2023-04-18T09:25:54.871Z,10.78
2023-04-18T09:28:31.865Z,10.74
2023-04-18T09:31:11.903Z,10.89
2023-04-18T09:33:56.796Z,10.94
2023-04-18T09:36:28.776Z,11.06
2023-04-18T09:39:00.523Z,11.22
2023-04-18T09:41:32.831Z,11.31
2023-04-18T09:44:14.313Z,11.26
2023-04-18T09:46:47.611Z,11.53
2023-04-18T09:49:20.017Z,11.66
2023-04-18T09:51:53.447Z,11.70
2023-04-18T09:54:25.816Z,11.54
2023-04-18T09:56:59.009Z,11.87
2023-04-18T09:59:34.281Z,12.00
2023-04-18T10:02:10.109Z,12.10
2023-04-18T10:04:47.052Z,12.07
2023-04-18T10:07:19.188Z,12.14
2023-04-18T10:09:51.712Z,12.18
2023-04-18T10:12:24.365Z,12.09
2023-04-18T10:14:56.293Z,12.22
2023-04-18T10:17:29.671Z,12.24
2023-04-18T10:20:10.118Z,12.29
2023-04-18T10:22:41.666Z,12.09
2023-04-18T10:25:13.427Z,12.28
2023-04-18T10:27:47.608Z,12.53
2023-04-18T10:30:19.132Z,12.47
2023-04-18T10:32:55.338Z,12.85
2023-04-18T10:35:27.094Z,13.03
2023-04-18T10:38:02.068Z,13.38
2023-04-18T10:40:34.748Z,13.62
2023-04-18T10:43:07.323Z,13.83
2023-04-18T10:45:39.152Z,13.97
2023-04-18T10:48:31.321Z,13.85
2023-04-18T10:51:20.721Z,13.76
2023-04-18T10:53:56.404Z,13.66
2023-04-18T10:56:29.022Z,13.45
2023-04-18T10:59:02.395Z,13.52
2023-04-18T11:01:37.588Z,13.48
2023-04-18T11:04:13.910Z,13.58
2023-04-18T11:06:56.008Z,13.64
2023-04-18T11:09:27.684Z,13.57
2023-04-18T11:12:09.164Z,13.90
2023-04-18T11:14:49.904Z,14.08
2023-04-18T11:17:35.793Z,14.26
2023-04-18T11:20:11.034Z,14.40
2023-04-18T11:22:49.098Z,14.37
2023-04-18T11:25:25.326Z,14.32
2023-04-18T11:28:00.111Z,14.26
2023-04-18T11:30:38.698Z,14.14
2023-04-18T11:33:11.915Z,14.32
2023-04-18T11:35:45.278Z,14.16
2023-04-18T11:38:17.210Z,13.99
2023-04-18T11:40:50.386Z,13.78
2023-04-18T11:43:24.054Z,13.70
2023-04-18T11:45:57.723Z,13.76
2023-04-18T11:48:36.650Z,13.82
2023-04-18T11:51:29.167Z,13.73
2023-04-18T11:54:00.716Z,13.41
2023-04-18T11:56:33.506Z,13.57
2023-04-18T11:59:09.788Z,13.50
2023-04-18T12:01:41.438Z,13.47
2023-04-18T12:04:13.176Z,13.50
2023-04-18T12:06:53.675Z,13.43
2023-04-18T12:09:26.059Z,13.52
2023-04-18T12:11:59.647Z,13.49
2023-04-18T12:14:31.361Z,13.57
2023-04-18T12:17:03.905Z,13.68
2023-04-18T12:19:35.451Z,13.62
2023-04-18T12:22:07.905Z,13.55
2023-04-18T12:24:39.553Z,13.44
2023-04-18T12:27:12.100Z,13.62
2023-04-18T12:29:43.660Z,13.51
2023-04-18T12:32:16.984Z,13.79
2023-04-18T12:34:48.500Z,13.83
2023-04-18T12:37:25.439Z,13.49
2023-04-18T12:39:56.956Z,13.55
2023-04-18T12:42:28.474Z,13.47
2023-04-18T12:45:09.953Z,13.58
2023-04-18T12:47:43.865Z,13.58
2023-04-18T12:50:18.087Z,13.67
2023-04-18T12:52:52.103Z,13.51
2023-04-18T12:55:24.297Z,13.62
2023-04-18T12:57:56.526Z,13.62
2023-04-18T13:00:30.543Z,13.48
2023-04-18T13:03:02.438Z,13.65
2023-04-18T13:05:34.324Z,13.74
2023-04-18T13:08:16.252Z,13.69
2023-04-18T13:10:48.910Z,13.76
2023-04-18T13:13:20.465Z,13.66
2023-04-18T13:15:52.345Z,13.65
2023-04-18T13:18:23.918Z,13.53
2023-04-18T13:20:55.503Z,13.56
2023-04-18T13:23:27.030Z,13.52
2023-04-18T13:25:58.592Z,13.39
2023-04-18T13:28:30.466Z,13.25
2023-04-18T13:31:02.141Z,13.27
2023-04-18T13:33:33.739Z,13.24
2023-04-18T13:36:05.595Z,13.20
2023-04-18T13:38:37.145Z,13.22
2023-04-18T13:41:12.968Z,13.16
2023-04-18T13:43:45.247Z,13.22
2023-04-18T13:46:18.697Z,13.27
2023-04-18T13:48:50.424Z,13.14
2023-04-18T13:51:22.004Z,13.14
2023-04-18T13:53:53.674Z,13.11
2023-04-18T13:56:25.364Z,12.94
2023-04-18T13:58:57.099Z,12.84
2023-04-18T14:01:28.900Z,12.69
2023-04-18T14:04:00.931Z,12.61
2023-04-18T14:06:32.664Z,12.53
2023-04-18T14:09:04.933Z,12.46
2023-04-18T14:11:36.380Z,12.39
2023-04-18T14:14:07.864Z,12.32
2023-04-18T14:16:39.424Z,12.16
2023-04-18T14:19:11.246Z,12.07
2023-04-18T14:21:42.807Z,12.00
2023-04-18T14:24:14.509Z,11.90
2023-04-18T14:26:46.271Z,11.82
2023-04-18T14:29:17.818Z,11.67
2023-04-18T14:31:50.472Z,11.62
2023-04-18T14:34:22.126Z,11.63
2023-04-18T14:36:53.689Z,11.66
2023-04-18T14:39:25.199Z,11.59
2023-04-18T14:41:57.618Z,11.65
2023-04-18T14:44:30.402Z,11.70
2023-04-18T14:47:02.163Z,11.70
2023-04-18T14:49:33.804Z,11.73
2023-04-18T14:52:05.435Z,11.78
2023-04-18T14:54:36.936Z,11.77
2023-04-18T14:57:10.237Z,11.68
2023-04-18T14:59:41.957Z,11.64
2023-04-18T15:02:13.531Z,11.53
2023-04-18T15:04:45.587Z,11.51
2023-04-18T15:07:18.079Z,11.47
2023-04-18T15:09:50.513Z,11.48
2023-04-18T15:12:21.979Z,11.47
2023-04-18T15:14:53.945Z,11.45
2023-04-18T15:17:25.560Z,11.28
2023-04-18T15:19:58.580Z,11.18
2023-04-18T15:22:30.094Z,11.20
2023-04-18T15:25:01.862Z,11.18
2023-04-18T15:27:33.402Z,11.17
2023-04-18T15:30:05.640Z,11.16
2023-04-18T15:32:40.134Z,11.14
2023-04-18T15:35:12.785Z,11.17
2023-04-18T15:37:44.289Z,11.17
2023-04-18T15:40:18.720Z,11.12
2023-04-18T15:42:50.974Z,11.09
2023-04-18T15:45:22.426Z,11.08
2023-04-18T15:47:54.015Z,11.09
2023-04-18T15:50:26.045Z,10.93
2023-04-18T15:52:57.626Z,10.86
2023-04-18T15:55:29.417Z,10.89
2023-04-18T15:58:01.491Z,10.83
2023-04-18T16:00:33.082Z,10.86
2023-04-18T16:03:04.814Z,10.85
2023-04-18T16:05:36.502Z,10.87
2023-04-18T16:08:09.344Z,10.92
2023-04-18T16:10:41.496Z,10.95
2023-04-18T16:13:13.853Z,10.97
2023-04-18T16:15:45.955Z,11.02
2023-04-18T16:18:17.545Z,10.99
2023-04-18T16:20:49.221Z,11.02
2023-04-18T16:23:20.862Z,11.06
2023-04-18T16:25:55.180Z,11.11
2023-04-18T16:28:26.671Z,11.15
2023-04-18T16:30:58.139Z,11.21
2023-04-18T16:33:29.827Z,11.18
2023-04-18T16:36:03.114Z,11.29
2023-04-18T16:38:34.625Z,11.42
2023-04-18T16:41:06.171Z,11.53
2023-04-18T16:43:37.971Z,11.66
2023-04-18T16:46:11.692Z,11.68
2023-04-18T16:48:44.906Z,11.73
2023-04-18T16:51:16.539Z,11.78
2023-04-18T16:53:49.114Z,11.88
2023-04-18T16:56:20.722Z,11.96
2023-04-18T16:58:52.274Z,11.98
2023-04-18T17:01:23.890Z,11.91
2023-04-18T17:03:55.767Z,11.99
2023-04-18T17:06:27.570Z,12.03
2023-04-18T17:08:59.034Z,11.97
2023-04-18T17:11:32.132Z,11.94
2023-04-18T17:14:04.367Z,11.87
2023-04-18T17:16:39.057Z,11.84
2023-04-18T17:19:11.135Z,11.66
2023-04-18T17:21:43.987Z,11.64
2023-04-18T17:24:15.902Z,11.57
2023-04-18T17:26:47.445Z,11.34
2023-04-18T17:29:18.903Z,11.25
2023-04-18T17:31:50.475Z,11.19
2023-04-18T17:34:22.037Z,11.17
2023-04-18T17:36:53.579Z,10.90
2023-04-18T17:39:25.101Z,10.81
2023-04-18T17:41:56.629Z,10.75
2023-04-18T17:44:28.226Z,10.52
2023-04-18T17:47:00.936Z,10.52
2023-04-18T17:49:34.973Z,10.47
2023-04-18T17:52:06.521Z,10.44
2023-04-18T17:54:38.087Z,10.41
2023-04-18T17:57:09.590Z,10.33
2023-04-18T17:59:41.237Z,10.29
2023-04-18T18:02:12.859Z,10.26
2023-04-18T18:04:44.628Z,10.26
2023-04-18T18:07:16.228Z,10.24
2023-04-18T18:09:47.787Z,10.18
2023-04-18T18:12:19.327Z,10.20
2023-04-18T18:14:50.879Z,10.09
2023-04-18T18:17:22.345Z,10.12
2023-04-18T18:19:53.887Z,10.07
2023-04-18T18:22:26.164Z,10.09
2023-04-18T18:24:57.716Z,10.06
2023-04-18T18:27:29.224Z,10.03
2023-04-18T18:30:00.767Z,10.04
2023-04-18T18:32:32.349Z,10.01
2023-04-18T18:35:05.947Z,10.04
2023-04-18T18:37:37.424Z,10.05
2023-04-18T18:40:11.755Z,10.06
2023-04-18T18:42:43.307Z,10.02
2023-04-18T18:45:14.923Z,9.98
2023-04-18T18:47:46.900Z,9.96
2023-04-18T18:50:18.466Z,9.90
2023-04-18T18:52:50.130Z,9.91
2023-04-18T18:55:21.949Z,9.92
2023-04-18T18:57:53.579Z,9.95
2023-04-18T19:00:25.319Z,9.92
2023-04-18T19:02:57.846Z,9.96
2023-04-18T19:05:29.745Z,9.92
2023-04-18T19:08:04.002Z,9.96
2023-04-18T19:10:35.582Z,10.00
2023-04-18T19:13:08.356Z,10.01
2023-04-18T19:15:39.925Z,10.00
2023-04-18T19:18:12.380Z,10.00
2023-04-18T19:20:43.978Z,10.03
2023-04-18T19:23:17.092Z,9.97
2023-04-18T19:25:48.854Z,9.93
2023-04-18T19:28:22.164Z,9.92
2023-04-18T19:30:53.787Z,9.92
2023-04-18T19:33:25.691Z,9.96
2023-04-18T19:35:57.493Z,9.90
2023-04-18T19:38:30.124Z,9.92
2023-04-18T19:41:03.005Z,9.90
2023-04-18T19:43:35.915Z,9.78
2023-04-18T19:46:07.570Z,9.81
2023-04-18T19:48:39.228Z,9.77
2023-04-18T19:51:10.969Z,9.81
2023-04-18T19:53:43.165Z,9.77
2023-04-18T19:56:15.103Z,9.82
2023-04-18T19:58:47.068Z,9.79
2023-04-18T20:01:20.563Z,9.73
2023-04-18T20:03:56.059Z,9.75
2023-04-18T20:06:28.187Z,9.76
2023-04-18T20:09:02.470Z,9.79
2023-04-18T20:11:34.090Z,9.82
2023-04-18T20:14:06.104Z,9.82
2023-04-18T20:16:38.973Z,9.83
2023-04-18T20:19:12.497Z,9.84
2023-04-18T20:21:44.455Z,9.85
2023-04-18T20:24:16.342Z,9.78
2023-04-18T20:26:48.086Z,9.75
2023-04-18T20:29:21.695Z,9.75
2023-04-18T20:31:53.391Z,9.71
2023-04-18T20:34:24.925Z,9.68
2023-04-18T20:36:58.218Z,9.62
2023-04-18T20:39:30.801Z,9.56
2023-04-18T20:42:04.323Z,9.52
2023-04-18T20:44:36.643Z,9.50
2023-04-18T20:47:09.328Z,9.45
2023-04-18T20:49:41.276Z,9.44
2023-04-18T20:52:14.530Z,9.47
2023-04-18T20:54:47.642Z,9.46
2023-04-18T20:57:20.158Z,9.43
2023-04-18T20:59:51.981Z,9.40
2023-04-18T21:02:23.771Z,9.42
2023-04-18T21:04:55.423Z,9.41
2023-04-18T21:07:28.404Z,9.39
2023-04-18T21:09:59.961Z,9.37
2023-04-18T21:12:31.530Z,9.38
2023-04-18T21:15:05.635Z,9.41
2023-04-18T21:17:37.312Z,9.42
2023-04-18T21:20:09.449Z,9.43
2023-04-18T21:22:41.122Z,9.46
2023-04-18T21:25:12.726Z,9.47
2023-04-18T21:27:44.633Z,9.46
2023-04-18T21:30:16.501Z,9.48
2023-04-18T21:32:51.472Z,9.49
2023-04-18T21:35:24.792Z,9.50
2023-04-18T21:37:57.301Z,9.48
2023-04-18T21:40:31.217Z,9.46
2023-04-18T21:43:03.204Z,9.44
2023-04-18T21:45:34.927Z,9.40
2023-04-18T21:48:09.102Z,9.42
2023-04-18T21:50:42.989Z,9.43
2023-04-18T21:53:14.550Z,9.43
2023-04-18T21:55:46.191Z,9.45
2023-04-18T21:58:17.921Z,9.45
2023-04-18T22:00:50.182Z,9.42
2023-04-18T22:03:21.818Z,9.40
2023-04-18T22:05:53.984Z,9.38
2023-04-18T22:08:26.249Z,9.39
2023-04-18T22:10:59.009Z,9.38
2023-04-18T22:13:32.946Z,9.35
2023-04-18T22:16:05.092Z,9.34
2023-04-18T22:18:37.933Z,9.35
2023-04-18T22:21:10.135Z,9.33
2023-04-18T22:23:41.672Z,9.35
2023-04-18T22:26:13.391Z,9.35
2023-04-18T22:28:44.947Z,9.34
2023-04-18T22:31:16.642Z,9.26
2023-04-18T22:33:48.267Z,9.20
2023-04-18T22:36:19.911Z,9.25
2023-04-18T22:38:51.423Z,9.24
2023-04-18T22:41:23.056Z,9.24
2023-04-18T22:43:54.677Z,9.23
2023-04-18T22:46:27.330Z,9.22
2023-04-18T22:48:59.585Z,9.25
2023-04-18T22:51:31.925Z,9.23
2023-04-18T22:54:03.604Z,9.23
2023-04-18T22:56:35.458Z,9.23
2023-04-18T22:59:09.110Z,9.18
2023-04-18T23:01:40.801Z,9.21
2023-04-18T23:04:12.523Z,9.20
2023-04-18T23:06:44.322Z,9.19
2023-04-18T23:09:19.531Z,9.20
2023-04-18T23:11:51.167Z,9.20
2023-04-18T23:14:22.839Z,9.19
2023-04-18T23:16:54.531Z,9.17
2023-04-18T23:19:26.076Z,9.15
2023-04-18T23:21:57.738Z,9.13
2023-04-18T23:24:30.791Z,9.07
2023-04-18T23:27:02.481Z,9.06
2023-04-18T23:29:38.971Z,9.09
2023-04-18T23:32:10.651Z,9.09
2023-04-18T23:34:42.335Z,9.14
2023-04-18T23:37:13.878Z,9.16
2023-04-18T23:39:45.889Z,9.17
2023-04-18T23:42:17.584Z,9.19
2023-04-18T23:44:49.501Z,9.18
2023-04-18T23:47:21.530Z,9.17
2023-04-18T23:49:53.113Z,9.16
2023-04-18T23:52:24.812Z,9.16
2023-04-18T23:55:00.308Z,9.16
2023-04-18T23:57:32.226Z,9.11
